sensor_id;sensor_type;location;lat;lon;timestamp;temperature;humidity
68922;DHT22;55959;51.244;5.724;2022-12-24T00:00:21;14.20;71.80
68922;DHT22;55959;51.244;5.724;2022-12-24T00:02:46;14.20;72.00
68922;DHT22;55959;51.244;5.724;2022-12-24T00:05:12;14.20;72.00
68922;DHT22;55959;51.244;5.724;2022-12-24T00:07:38;14.20;72.20
68922;DHT22;55959;51.244;5.724;2022-12-24T00:10:06;14.20;73.10
68922;DHT22;55959;51.244;5.724;2022-12-24T00:12:33;14.20;72.20
68922;DHT22;55959;51.244;5.724;2022-12-24T00:14:58;14.20;72.20
68922;DHT22;55959;51.244;5.724;2022-12-24T00:17:24;14.20;72.20
68922;DHT22;55959;51.244;5.724;2022-12-24T00:19:50;14.10;72.30
68922;DHT22;55959;51.244;5.724;2022-12-24T00:22:15;14.10;72.40
68922;DHT22;55959;51.244;5.724;2022-12-24T00:24:41;14.10;72.60
68922;DHT22;55959;51.244;5.724;2022-12-24T00:27:07;14.10;72.60
68922;DHT22;55959;51.244;5.724;2022-12-24T00:29:33;14.10;72.80
68922;DHT22;55959;51.244;5.724;2022-12-24T00:31:58;14.10;73.00
68922;DHT22;55959;51.244;5.724;2022-12-24T00:34:24;14.10;73.10
68922;DHT22;55959;51.244;5.724;2022-12-24T00:36:50;14.10;73.20
68922;DHT22;55959;51.244;5.724;2022-12-24T00:39:16;14.10;73.20
68922;DHT22;55959;51.244;5.724;2022-12-24T00:41:43;14.10;73.20
68922;DHT22;55959;51.244;5.724;2022-12-24T00:44:09;14.00;73.30
68922;DHT22;55959;51.244;5.724;2022-12-24T00:46:39;14.00;73.40
68922;DHT22;55959;51.244;5.724;2022-12-24T00:49:06;14.00;73.50
68922;DHT22;55959;51.244;5.724;2022-12-24T00:51:33;14.00;73.60
68922;DHT22;55959;51.244;5.724;2022-12-24T00:53:59;14.00;73.70
68922;DHT22;55959;51.244;5.724;2022-12-24T00:56:26;14.00;73.70
68922;DHT22;55959;51.244;5.724;2022-12-24T00:58:52;14.00;73.70
68922;DHT22;55959;51.244;5.724;2022-12-24T01:01:19;14.00;73.80
68922;DHT22;55959;51.244;5.724;2022-12-24T01:03:45;14.00;73.90
68922;DHT22;55959;51.244;5.724;2022-12-24T01:06:17;13.90;73.90
68922;DHT22;55959;51.244;5.724;2022-12-24T01:08:44;13.90;74.00
68922;DHT22;55959;51.244;5.724;2022-12-24T01:11:11;13.90;74.00
68922;DHT22;55959;51.244;5.724;2022-12-24T01:13:38;13.90;74.10
68922;DHT22;55959;51.244;5.724;2022-12-24T01:16:15;13.90;74.00
68922;DHT22;55959;51.244;5.724;2022-12-24T01:18:43;13.90;74.00
68922;DHT22;55959;51.244;5.724;2022-12-24T01:21:09;13.90;74.00
68922;DHT22;55959;51.244;5.724;2022-12-24T01:23:35;13.90;74.00
68922;DHT22;55959;51.244;5.724;2022-12-24T01:26:02;13.90;74.00
68922;DHT22;55959;51.244;5.724;2022-12-24T01:28:28;13.80;73.80
68922;DHT22;55959;51.244;5.724;2022-12-24T01:30:54;13.80;73.80
68922;DHT22;55959;51.244;5.724;2022-12-24T01:33:20;13.80;73.90
68922;DHT22;55959;51.244;5.724;2022-12-24T01:35:46;13.80;73.80
68922;DHT22;55959;51.244;5.724;2022-12-24T01:38:12;13.80;73.90
68922;DHT22;55959;51.244;5.724;2022-12-24T01:40:40;13.80;73.90
68922;DHT22;55959;51.244;5.724;2022-12-24T01:43:26;13.80;73.90
68922;DHT22;55959;51.244;5.724;2022-12-24T01:48:57;13.80;73.90
68922;DHT22;55959;51.244;5.724;2022-12-24T01:51:38;13.70;73.80
68922;DHT22;55959;51.244;5.724;2022-12-24T01:54:17;13.70;73.80
68922;DHT22;55959;51.244;5.724;2022-12-24T01:56:52;13.80;73.90
68922;DHT22;55959;51.244;5.724;2022-12-24T01:59:22;13.70;73.80
68922;DHT22;55959;51.244;5.724;2022-12-24T02:01:49;13.70;73.80
68922;DHT22;55959;51.244;5.724;2022-12-24T02:07:09;13.80;74.00
68922;DHT22;55959;51.244;5.724;2022-12-24T02:09:35;13.80;74.00
68922;DHT22;55959;51.244;5.724;2022-12-24T02:12:03;13.80;74.00
68922;DHT22;55959;51.244;5.724;2022-12-24T02:14:29;13.80;74.10
68922;DHT22;55959;51.244;5.724;2022-12-24T02:17:16;13.80;74.10
68922;DHT22;55959;51.244;5.724;2022-12-24T02:29:43;13.80;74.90
68922;DHT22;55959;51.244;5.724;2022-12-24T02:35:05;13.80;74.20
68922;DHT22;55959;51.244;5.724;2022-12-24T02:38:03;13.80;74.30
68922;DHT22;55959;51.244;5.724;2022-12-24T02:40:39;13.80;74.40
68922;DHT22;55959;51.244;5.724;2022-12-24T02:43:18;13.80;74.40
68922;DHT22;55959;51.244;5.724;2022-12-24T02:45:53;13.80;74.60
68922;DHT22;55959;51.244;5.724;2022-12-24T02:48:23;13.80;74.60
68922;DHT22;55959;51.244;5.724;2022-12-24T02:51:00;13.80;74.60
68922;DHT22;55959;51.244;5.724;2022-12-24T02:53:27;13.80;74.80
68922;DHT22;55959;51.244;5.724;2022-12-24T02:59:03;13.80;75.10
68922;DHT22;55959;51.244;5.724;2022-12-24T03:07:20;13.70;75.40
68922;DHT22;55959;51.244;5.724;2022-12-24T03:10:15;13.80;75.60
68922;DHT22;55959;51.244;5.724;2022-12-24T03:12:51;13.80;75.60
68922;DHT22;55959;51.244;5.724;2022-12-24T03:15:22;13.70;75.60
68922;DHT22;55959;51.244;5.724;2022-12-24T03:17:53;13.80;75.70
68922;DHT22;55959;51.244;5.724;2022-12-24T03:20:26;13.70;75.70
68922;DHT22;55959;51.244;5.724;2022-12-24T03:22:58;13.80;75.80
68922;DHT22;55959;51.244;5.724;2022-12-24T03:25:24;13.80;75.80
68922;DHT22;55959;51.244;5.724;2022-12-24T03:27:51;13.70;75.80
68922;DHT22;55959;51.244;5.724;2022-12-24T03:30:19;13.80;75.90
68922;DHT22;55959;51.244;5.724;2022-12-24T03:32:45;13.80;76.00
68922;DHT22;55959;51.244;5.724;2022-12-24T03:35:11;13.80;76.00
68922;DHT22;55959;51.244;5.724;2022-12-24T03:37:37;13.80;76.10
68922;DHT22;55959;51.244;5.724;2022-12-24T03:40:07;13.80;76.10
68922;DHT22;55959;51.244;5.724;2022-12-24T03:42:33;13.80;76.20
68922;DHT22;55959;51.244;5.724;2022-12-24T03:44:58;13.80;76.20
68922;DHT22;55959;51.244;5.724;2022-12-24T03:47:24;13.80;76.30
68922;DHT22;55959;51.244;5.724;2022-12-24T03:49:50;13.80;76.30
68922;DHT22;55959;51.244;5.724;2022-12-24T03:52:16;13.80;76.30
68922;DHT22;55959;51.244;5.724;2022-12-24T03:54:41;13.80;76.30
68922;DHT22;55959;51.244;5.724;2022-12-24T03:57:07;13.70;76.30
68922;DHT22;55959;51.244;5.724;2022-12-24T03:59:33;13.70;76.50
68922;DHT22;55959;51.244;5.724;2022-12-24T04:01:59;13.70;76.60
68922;DHT22;55959;51.244;5.724;2022-12-24T04:04:24;13.70;76.80
68922;DHT22;55959;51.244;5.724;2022-12-24T04:06:50;13.70;76.90
68922;DHT22;55959;51.244;5.724;2022-12-24T04:09:16;13.70;77.10
68922;DHT22;55959;51.244;5.724;2022-12-24T04:11:41;13.60;77.00
68922;DHT22;55959;51.244;5.724;2022-12-24T04:14:07;13.60;77.10
68922;DHT22;55959;51.244;5.724;2022-12-24T04:16:33;13.60;77.20
68922;DHT22;55959;51.244;5.724;2022-12-24T04:18:59;13.60;77.20
68922;DHT22;55959;51.244;5.724;2022-12-24T04:21:24;13.60;77.30
68922;DHT22;55959;51.244;5.724;2022-12-24T04:23:50;13.60;77.40
68922;DHT22;55959;51.244;5.724;2022-12-24T04:26:16;13.60;77.40
68922;DHT22;55959;51.244;5.724;2022-12-24T04:28:42;13.50;77.40
68922;DHT22;55959;51.244;5.724;2022-12-24T04:31:11;13.50;77.40
68922;DHT22;55959;51.244;5.724;2022-12-24T04:33:37;13.50;77.60
68922;DHT22;55959;51.244;5.724;2022-12-24T04:36:05;13.50;77.60
68922;DHT22;55959;51.244;5.724;2022-12-24T04:38:32;13.50;77.60
68922;DHT22;55959;51.244;5.724;2022-12-24T04:41:07;13.50;77.80
68922;DHT22;55959;51.244;5.724;2022-12-24T04:43:36;13.50;77.90
68922;DHT22;55959;51.244;5.724;2022-12-24T04:46:10;13.50;77.90
68922;DHT22;55959;51.244;5.724;2022-12-24T04:48:40;13.50;78.00
68922;DHT22;55959;51.244;5.724;2022-12-24T04:51:07;13.50;77.90
68922;DHT22;55959;51.244;5.724;2022-12-24T04:53:34;13.50;78.00
68922;DHT22;55959;51.244;5.724;2022-12-24T04:56:00;13.50;78.00
68922;DHT22;55959;51.244;5.724;2022-12-24T04:58:26;13.60;77.90
68922;DHT22;55959;51.244;5.724;2022-12-24T05:00:53;13.60;77.80
68922;DHT22;55959;51.244;5.724;2022-12-24T05:03:19;13.60;77.80
68922;DHT22;55959;51.244;5.724;2022-12-24T05:05:45;13.60;77.80
68922;DHT22;55959;51.244;5.724;2022-12-24T05:08:12;13.60;77.80
68922;DHT22;55959;51.244;5.724;2022-12-24T05:10:38;13.60;77.70
68922;DHT22;55959;51.244;5.724;2022-12-24T05:13:04;13.60;77.60
68922;DHT22;55959;51.244;5.724;2022-12-24T05:15:29;13.60;77.60
68922;DHT22;55959;51.244;5.724;2022-12-24T05:17:55;13.60;77.70
68922;DHT22;55959;51.244;5.724;2022-12-24T05:20:22;13.60;77.60
68922;DHT22;55959;51.244;5.724;2022-12-24T05:22:48;13.60;77.70
68922;DHT22;55959;51.244;5.724;2022-12-24T05:25:35;13.60;77.60
68922;DHT22;55959;51.244;5.724;2022-12-24T05:28:21;13.60;77.60
68922;DHT22;55959;51.244;5.724;2022-12-24T05:30:47;13.60;77.50
68922;DHT22;55959;51.244;5.724;2022-12-24T05:33:13;13.60;77.40
68922;DHT22;55959;51.244;5.724;2022-12-24T05:35:39;13.60;77.50
68922;DHT22;55959;51.244;5.724;2022-12-24T05:38:04;13.60;77.40
68922;DHT22;55959;51.244;5.724;2022-12-24T05:40:30;13.60;77.40
68922;DHT22;55959;51.244;5.724;2022-12-24T05:42:56;13.60;77.20
68922;DHT22;55959;51.244;5.724;2022-12-24T05:45:22;13.60;77.00
68922;DHT22;55959;51.244;5.724;2022-12-24T05:47:47;13.60;77.10
68922;DHT22;55959;51.244;5.724;2022-12-24T05:50:13;13.60;77.10
68922;DHT22;55959;51.244;5.724;2022-12-24T05:52:39;13.60;77.10
68922;DHT22;55959;51.244;5.724;2022-12-24T05:55:05;13.60;77.00
68922;DHT22;55959;51.244;5.724;2022-12-24T05:57:32;13.60;77.00
68922;DHT22;55959;51.244;5.724;2022-12-24T05:59:57;13.60;77.10
68922;DHT22;55959;51.244;5.724;2022-12-24T06:02:23;13.50;77.00
68922;DHT22;55959;51.244;5.724;2022-12-24T06:04:49;13.50;77.00
68922;DHT22;55959;51.244;5.724;2022-12-24T06:07:15;13.60;77.20
68922;DHT22;55959;51.244;5.724;2022-12-24T06:09:40;13.50;77.20
68922;DHT22;55959;51.244;5.724;2022-12-24T06:12:06;13.50;77.30
68922;DHT22;55959;51.244;5.724;2022-12-24T06:14:32;13.50;77.20
68922;DHT22;55959;51.244;5.724;2022-12-24T06:16:57;13.50;77.20
68922;DHT22;55959;51.244;5.724;2022-12-24T06:19:23;13.50;77.10
68922;DHT22;55959;51.244;5.724;2022-12-24T06:21:49;13.50;77.20
68922;DHT22;55959;51.244;5.724;2022-12-24T06:24:15;13.50;77.20
68922;DHT22;55959;51.244;5.724;2022-12-24T06:26:40;13.50;77.20
68922;DHT22;55959;51.244;5.724;2022-12-24T06:29:06;13.40;77.10
68922;DHT22;55959;51.244;5.724;2022-12-24T06:31:32;13.50;77.10
68922;DHT22;55959;51.244;5.724;2022-12-24T06:33:58;13.40;77.00
68922;DHT22;55959;51.244;5.724;2022-12-24T06:36:24;13.40;77.00
68922;DHT22;55959;51.244;5.724;2022-12-24T06:38:52;13.40;77.10
68922;DHT22;55959;51.244;5.724;2022-12-24T06:41:19;13.40;77.20
68922;DHT22;55959;51.244;5.724;2022-12-24T06:43:47;13.40;77.20
68922;DHT22;55959;51.244;5.724;2022-12-24T06:46:14;13.40;77.30
68922;DHT22;55959;51.244;5.724;2022-12-24T06:48:42;13.40;77.30
68922;DHT22;55959;51.244;5.724;2022-12-24T06:51:09;13.50;77.30
68922;DHT22;55959;51.244;5.724;2022-12-24T06:53:34;13.50;77.10
68922;DHT22;55959;51.244;5.724;2022-12-24T06:56:05;13.50;77.00
68922;DHT22;55959;51.244;5.724;2022-12-24T06:58:32;13.50;76.90
68922;DHT22;55959;51.244;5.724;2022-12-24T07:01:07;13.50;76.90
68922;DHT22;55959;51.244;5.724;2022-12-24T07:03:34;13.60;77.00
68922;DHT22;55959;51.244;5.724;2022-12-24T07:06:00;13.60;76.90
68922;DHT22;55959;51.244;5.724;2022-12-24T07:08:26;13.60;76.80
68922;DHT22;55959;51.244;5.724;2022-12-24T07:10:52;13.60;76.80
68922;DHT22;55959;51.244;5.724;2022-12-24T07:13:18;13.60;76.70
68922;DHT22;55959;51.244;5.724;2022-12-24T07:15:44;13.60;76.60
68922;DHT22;55959;51.244;5.724;2022-12-24T07:18:10;13.70;76.60
68922;DHT22;55959;51.244;5.724;2022-12-24T07:20:36;13.70;76.60
68922;DHT22;55959;51.244;5.724;2022-12-24T07:23:03;13.70;76.60
68922;DHT22;55959;51.244;5.724;2022-12-24T07:25:29;13.70;76.50
68922;DHT22;55959;51.244;5.724;2022-12-24T07:27:54;13.70;76.40
68922;DHT22;55959;51.244;5.724;2022-12-24T07:30:20;13.70;76.40
68922;DHT22;55959;51.244;5.724;2022-12-24T07:32:46;13.70;76.40
68922;DHT22;55959;51.244;5.724;2022-12-24T07:35:12;13.70;76.40
68922;DHT22;55959;51.244;5.724;2022-12-24T07:37:37;13.70;76.30
68922;DHT22;55959;51.244;5.724;2022-12-24T07:40:04;13.70;76.30
68922;DHT22;55959;51.244;5.724;2022-12-24T07:42:32;13.70;76.30
68922;DHT22;55959;51.244;5.724;2022-12-24T07:44:58;13.70;76.20
68922;DHT22;55959;51.244;5.724;2022-12-24T07:47:24;13.70;76.30
68922;DHT22;55959;51.244;5.724;2022-12-24T07:49:49;13.60;76.10
68922;DHT22;55959;51.244;5.724;2022-12-24T07:52:15;13.70;76.20
68922;DHT22;55959;51.244;5.724;2022-12-24T07:54:41;13.60;76.20
68922;DHT22;55959;51.244;5.724;2022-12-24T07:57:07;13.70;76.40
68922;DHT22;55959;51.244;5.724;2022-12-24T07:59:32;13.60;76.20
68922;DHT22;55959;51.244;5.724;2022-12-24T08:01:58;13.60;76.20
68922;DHT22;55959;51.244;5.724;2022-12-24T08:04:24;13.60;76.20
68922;DHT22;55959;51.244;5.724;2022-12-24T08:06:49;13.60;76.20
68922;DHT22;55959;51.244;5.724;2022-12-24T08:09:15;13.60;76.20
68922;DHT22;55959;51.244;5.724;2022-12-24T08:11:41;13.60;76.20
68922;DHT22;55959;51.244;5.724;2022-12-24T08:14:07;13.60;76.20
68922;DHT22;55959;51.244;5.724;2022-12-24T08:16:33;13.60;76.20
68922;DHT22;55959;51.244;5.724;2022-12-24T08:18:59;13.60;76.20
68922;DHT22;55959;51.244;5.724;2022-12-24T08:21:24;13.60;76.20
68922;DHT22;55959;51.244;5.724;2022-12-24T08:23:50;13.60;76.20
68922;DHT22;55959;51.244;5.724;2022-12-24T08:26:16;13.60;76.20
68922;DHT22;55959;51.244;5.724;2022-12-24T08:28:41;13.60;76.20
68922;DHT22;55959;51.244;5.724;2022-12-24T08:31:07;13.60;76.20
68922;DHT22;55959;51.244;5.724;2022-12-24T08:33:33;13.60;76.30
68922;DHT22;55959;51.244;5.724;2022-12-24T08:36:00;13.60;76.40
68922;DHT22;55959;51.244;5.724;2022-12-24T08:38:26;13.60;76.30
68922;DHT22;55959;51.244;5.724;2022-12-24T08:40:54;13.60;76.30
68922;DHT22;55959;51.244;5.724;2022-12-24T08:43:20;13.50;76.20
68922;DHT22;55959;51.244;5.724;2022-12-24T08:45:46;13.50;76.30
68922;DHT22;55959;51.244;5.724;2022-12-24T08:48:14;13.60;76.50
68922;DHT22;55959;51.244;5.724;2022-12-24T08:50:41;13.50;76.50
68922;DHT22;55959;51.244;5.724;2022-12-24T08:53:09;13.50;76.60
68922;DHT22;55959;51.244;5.724;2022-12-24T08:55:35;13.50;76.70
68922;DHT22;55959;51.244;5.724;2022-12-24T08:58:01;13.60;76.80
68922;DHT22;55959;51.244;5.724;2022-12-24T09:00:28;13.60;76.80
68922;DHT22;55959;51.244;5.724;2022-12-24T09:02:55;13.60;76.90
68922;DHT22;55959;51.244;5.724;2022-12-24T09:05:21;13.60;76.90
68922;DHT22;55959;51.244;5.724;2022-12-24T09:07:47;13.60;76.90
68922;DHT22;55959;51.244;5.724;2022-12-24T09:10:13;13.60;76.80
68922;DHT22;55959;51.244;5.724;2022-12-24T09:12:38;13.60;76.90
68922;DHT22;55959;51.244;5.724;2022-12-24T09:15:04;13.60;76.90
68922;DHT22;55959;51.244;5.724;2022-12-24T09:17:32;13.60;76.90
68922;DHT22;55959;51.244;5.724;2022-12-24T09:19:59;13.60;76.90
68922;DHT22;55959;51.244;5.724;2022-12-24T09:22:24;13.70;77.00
68922;DHT22;55959;51.244;5.724;2022-12-24T09:24:53;13.70;77.00
68922;DHT22;55959;51.244;5.724;2022-12-24T09:27:19;13.70;77.00
68922;DHT22;55959;51.244;5.724;2022-12-24T09:29:44;13.70;76.90
68922;DHT22;55959;51.244;5.724;2022-12-24T09:32:10;13.70;76.90
68922;DHT22;55959;51.244;5.724;2022-12-24T09:34:36;13.70;76.80
68922;DHT22;55959;51.244;5.724;2022-12-24T09:37:02;13.70;76.80
68922;DHT22;55959;51.244;5.724;2022-12-24T09:39:28;13.70;76.90
68922;DHT22;55959;51.244;5.724;2022-12-24T09:45:10;13.70;77.00
68922;DHT22;55959;51.244;5.724;2022-12-24T09:47:53;13.70;77.00
68922;DHT22;55959;51.244;5.724;2022-12-24T09:50:30;13.70;77.00
68922;DHT22;55959;51.244;5.724;2022-12-24T09:53:00;13.70;77.00
68922;DHT22;55959;51.244;5.724;2022-12-24T09:55:32;13.70;77.00
68922;DHT22;55959;51.244;5.724;2022-12-24T09:58:03;13.70;77.00
68922;DHT22;55959;51.244;5.724;2022-12-24T10:00:34;13.70;76.90
68922;DHT22;55959;51.244;5.724;2022-12-24T10:03:01;13.80;77.00
68922;DHT22;55959;51.244;5.724;2022-12-24T10:08:50;13.80;76.90
68922;DHT22;55959;51.244;5.724;2022-12-24T10:11:55;13.80;76.70
68922;DHT22;55959;51.244;5.724;2022-12-24T10:20:50;13.80;76.60
68922;DHT22;55959;51.244;5.724;2022-12-24T10:23:34;13.80;76.60
68922;DHT22;55959;51.244;5.724;2022-12-24T10:26:12;13.80;76.60
68922;DHT22;55959;51.244;5.724;2022-12-24T10:28:51;13.80;76.60
68922;DHT22;55959;51.244;5.724;2022-12-24T10:31:25;13.80;76.60
68922;DHT22;55959;51.244;5.724;2022-12-24T10:34:16;13.80;76.50
68922;DHT22;55959;51.244;5.724;2022-12-24T10:36:47;13.90;76.60
68922;DHT22;55959;51.244;5.724;2022-12-24T10:39:22;13.90;76.60
68922;DHT22;55959;51.244;5.724;2022-12-24T10:41:50;13.90;76.70
68922;DHT22;55959;51.244;5.724;2022-12-24T10:44:21;13.90;76.50
68922;DHT22;55959;51.244;5.724;2022-12-24T10:46:49;13.90;76.50
68922;DHT22;55959;51.244;5.724;2022-12-24T10:49:18;13.90;76.60
68922;DHT22;55959;51.244;5.724;2022-12-24T10:51:53;14.00;76.50
68922;DHT22;55959;51.244;5.724;2022-12-24T10:54:27;14.00;76.50
68922;DHT22;55959;51.244;5.724;2022-12-24T10:57:01;14.00;76.40
68922;DHT22;55959;51.244;5.724;2022-12-24T11:02:25;14.00;76.30
68922;DHT22;55959;51.244;5.724;2022-12-24T11:04:58;14.00;76.20
68922;DHT22;55959;51.244;5.724;2022-12-24T11:07:25;14.00;76.10
68922;DHT22;55959;51.244;5.724;2022-12-24T11:09:59;14.00;76.30
68922;DHT22;55959;51.244;5.724;2022-12-24T11:12:30;14.00;76.30
68922;DHT22;55959;51.244;5.724;2022-12-24T11:17:27;14.10;76.40
68922;DHT22;55959;51.244;5.724;2022-12-24T11:19:53;14.10;76.40
68922;DHT22;55959;51.244;5.724;2022-12-24T11:22:27;14.10;76.40
68922;DHT22;55959;51.244;5.724;2022-12-24T11:25:04;14.10;76.20
68922;DHT22;55959;51.244;5.724;2022-12-24T11:30:24;14.20;76.30
68922;DHT22;55959;51.244;5.724;2022-12-24T11:35:28;14.20;76.00
68922;DHT22;55959;51.244;5.724;2022-12-24T11:40:35;14.20;76.20
68922;DHT22;55959;51.244;5.724;2022-12-24T11:43:04;14.20;76.30
68922;DHT22;55959;51.244;5.724;2022-12-24T11:45:32;14.30;76.40
68922;DHT22;55959;51.244;5.724;2022-12-24T11:47:58;14.30;76.40
68922;DHT22;55959;51.244;5.724;2022-12-24T11:50:28;14.30;76.40
68922;DHT22;55959;51.244;5.724;2022-12-24T11:53:11;14.40;76.30
68922;DHT22;55959;51.244;5.724;2022-12-24T11:55:52;14.50;76.40
68922;DHT22;55959;51.244;5.724;2022-12-24T12:04:29;14.60;76.10
68922;DHT22;55959;51.244;5.724;2022-12-24T12:09:48;14.80;75.10
68922;DHT22;55959;51.244;5.724;2022-12-24T12:12:28;14.80;74.80
68922;DHT22;55959;51.244;5.724;2022-12-24T12:15:24;14.90;74.60
68922;DHT22;55959;51.244;5.724;2022-12-24T12:18:04;14.90;74.00
68922;DHT22;55959;51.244;5.724;2022-12-24T12:20:53;15.00;73.00
68922;DHT22;55959;51.244;5.724;2022-12-24T12:23:34;15.00;72.30
68922;DHT22;55959;51.244;5.724;2022-12-24T12:26:22;15.00;71.90
68922;DHT22;55959;51.244;5.724;2022-12-24T12:31:48;15.00;71.60
68922;DHT22;55959;51.244;5.724;2022-12-24T12:34:33;15.00;71.50
68922;DHT22;55959;51.244;5.724;2022-12-24T12:37:58;15.00;71.40
68922;DHT22;55959;51.244;5.724;2022-12-24T12:40:12;15.10;71.40
68922;DHT22;55959;51.244;5.724;2022-12-24T12:42:40;15.10;71.00
68922;DHT22;55959;51.244;5.724;2022-12-24T12:48:12;15.10;70.80
68922;DHT22;55959;51.244;5.724;2022-12-24T12:51:08;15.10;70.40
68922;DHT22;55959;51.244;5.724;2022-12-24T12:54:08;15.10;70.20
68922;DHT22;55959;51.244;5.724;2022-12-24T12:56:41;15.20;70.00
68922;DHT22;55959;51.244;5.724;2022-12-24T12:59:16;15.20;69.40
68922;DHT22;55959;51.244;5.724;2022-12-24T13:08:26;15.20;68.90
68922;DHT22;55959;51.244;5.724;2022-12-24T13:22:29;15.20;67.20
68922;DHT22;55959;51.244;5.724;2022-12-24T13:24:54;15.10;67.10
68922;DHT22;55959;51.244;5.724;2022-12-24T13:27:27;15.10;67.40
68922;DHT22;55959;51.244;5.724;2022-12-24T13:30:02;15.10;67.60
68922;DHT22;55959;51.244;5.724;2022-12-24T13:32:53;15.20;67.80
68922;DHT22;55959;51.244;5.724;2022-12-24T13:37:48;15.20;67.80
68922;DHT22;55959;51.244;5.724;2022-12-24T13:40:24;15.20;67.60
68922;DHT22;55959;51.244;5.724;2022-12-24T13:43:05;15.20;67.50
68922;DHT22;55959;51.244;5.724;2022-12-24T13:50:50;15.30;67.50
68922;DHT22;55959;51.244;5.724;2022-12-24T13:53:41;15.30;67.50
68922;DHT22;55959;51.244;5.724;2022-12-24T13:56:18;15.30;67.30
68922;DHT22;55959;51.244;5.724;2022-12-24T13:58:53;15.30;67.40
68922;DHT22;55959;51.244;5.724;2022-12-24T14:01:32;15.30;67.70
68922;DHT22;55959;51.244;5.724;2022-12-24T14:04:01;15.30;67.80
68922;DHT22;55959;51.244;5.724;2022-12-24T14:06:32;15.30;67.90
68922;DHT22;55959;51.244;5.724;2022-12-24T14:09:12;15.30;67.80
68922;DHT22;55959;51.244;5.724;2022-12-24T14:16:57;15.40;68.00
68922;DHT22;55959;51.244;5.724;2022-12-24T14:19:39;15.30;68.00
68922;DHT22;55959;51.244;5.724;2022-12-24T14:24:54;15.30;68.10
68922;DHT22;55959;51.244;5.724;2022-12-24T14:30:07;15.30;68.00
68922;DHT22;55959;51.244;5.724;2022-12-24T14:32:42;15.20;67.80
68922;DHT22;55959;51.244;5.724;2022-12-24T14:35:15;15.20;67.80
68922;DHT22;55959;51.244;5.724;2022-12-24T14:46:43;15.10;67.90
68922;DHT22;55959;51.244;5.724;2022-12-24T14:55:26;15.00;68.20
68922;DHT22;55959;51.244;5.724;2022-12-24T14:58:26;15.00;68.40
68922;DHT22;55959;51.244;5.724;2022-12-24T15:00:58;14.90;68.30
68922;DHT22;55959;51.244;5.724;2022-12-24T15:03:31;14.90;68.30
68922;DHT22;55959;51.244;5.724;2022-12-24T15:06:03;14.90;68.40
68922;DHT22;55959;51.244;5.724;2022-12-24T15:08:35;14.80;68.40
68922;DHT22;55959;51.244;5.724;2022-12-24T15:11:08;14.80;68.40
68922;DHT22;55959;51.244;5.724;2022-12-24T15:13:39;14.80;68.50
68922;DHT22;55959;51.244;5.724;2022-12-24T15:16:09;14.80;68.50
68922;DHT22;55959;51.244;5.724;2022-12-24T15:18:41;14.80;68.60
68922;DHT22;55959;51.244;5.724;2022-12-24T15:21:16;14.70;68.60
68922;DHT22;55959;51.244;5.724;2022-12-24T15:23:48;14.70;68.60
68922;DHT22;55959;51.244;5.724;2022-12-24T15:26:20;14.70;68.70
68922;DHT22;55959;51.244;5.724;2022-12-24T15:28:56;14.60;68.70
68922;DHT22;55959;51.244;5.724;2022-12-24T15:31:25;14.60;68.80
68922;DHT22;55959;51.244;5.724;2022-12-24T15:33:54;14.60;68.80
68922;DHT22;55959;51.244;5.724;2022-12-24T15:36:32;14.60;69.00
68922;DHT22;55959;51.244;5.724;2022-12-24T15:39:02;14.60;69.10
68922;DHT22;55959;51.244;5.724;2022-12-24T15:41:42;14.50;69.20
68922;DHT22;55959;51.244;5.724;2022-12-24T15:44:35;14.50;69.40
68922;DHT22;55959;51.244;5.724;2022-12-24T15:47:04;14.50;69.40
68922;DHT22;55959;51.244;5.724;2022-12-24T15:49:32;14.50;70.20
68922;DHT22;55959;51.244;5.724;2022-12-24T15:52:10;14.50;69.30
68922;DHT22;55959;51.244;5.724;2022-12-24T15:54:43;14.50;69.40
68922;DHT22;55959;51.244;5.724;2022-12-24T15:57:29;14.40;69.20
68922;DHT22;55959;51.244;5.724;2022-12-24T15:59:57;14.40;69.30
68922;DHT22;55959;51.244;5.724;2022-12-24T16:02:35;14.40;69.30
68922;DHT22;55959;51.244;5.724;2022-12-24T16:05:31;14.30;69.20
68922;DHT22;55959;51.244;5.724;2022-12-24T16:08:21;14.30;69.30
68922;DHT22;55959;51.244;5.724;2022-12-24T16:16:18;14.20;69.20
68922;DHT22;55959;51.244;5.724;2022-12-24T16:18:52;14.10;69.90
68922;DHT22;55959;51.244;5.724;2022-12-24T16:23:55;14.00;69.70
68922;DHT22;55959;51.244;5.724;2022-12-24T16:26:22;14.00;68.90
68922;DHT22;55959;51.244;5.724;2022-12-24T16:28:49;14.00;68.80
68922;DHT22;55959;51.244;5.724;2022-12-24T16:31:32;13.90;68.80
68922;DHT22;55959;51.244;5.724;2022-12-24T16:34:01;13.90;68.80
68922;DHT22;55959;51.244;5.724;2022-12-24T16:36:28;13.90;68.80
68922;DHT22;55959;51.244;5.724;2022-12-24T16:38:57;13.80;68.90
68922;DHT22;55959;51.244;5.724;2022-12-24T16:41:41;13.80;69.00
68922;DHT22;55959;51.244;5.724;2022-12-24T16:44:26;13.70;69.00
68922;DHT22;55959;51.244;5.724;2022-12-24T16:46:53;13.70;69.00
68922;DHT22;55959;51.244;5.724;2022-12-24T16:49:19;13.60;69.00
68922;DHT22;55959;51.244;5.724;2022-12-24T16:51:46;13.50;68.90
68922;DHT22;55959;51.244;5.724;2022-12-24T16:54:13;13.50;68.80
68922;DHT22;55959;51.244;5.724;2022-12-24T16:56:40;13.50;69.00
68922;DHT22;55959;51.244;5.724;2022-12-24T16:59:14;13.40;69.00
68922;DHT22;55959;51.244;5.724;2022-12-24T17:01:41;13.40;69.00
68922;DHT22;55959;51.244;5.724;2022-12-24T17:04:06;13.30;69.00
68922;DHT22;55959;51.244;5.724;2022-12-24T17:06:32;13.30;70.00
68922;DHT22;55959;51.244;5.724;2022-12-24T17:08:58;13.30;69.20
68922;DHT22;55959;51.244;5.724;2022-12-24T17:11:24;13.20;69.20
68922;DHT22;55959;51.244;5.724;2022-12-24T17:13:49;13.20;69.20
68922;DHT22;55959;51.244;5.724;2022-12-24T17:16:15;13.10;69.10
68922;DHT22;55959;51.244;5.724;2022-12-24T17:18:41;13.10;69.20
68922;DHT22;55959;51.244;5.724;2022-12-24T17:21:06;13.10;69.20
68922;DHT22;55959;51.244;5.724;2022-12-24T17:23:35;13.00;69.20
68922;DHT22;55959;51.244;5.724;2022-12-24T17:26:01;13.00;69.20
68922;DHT22;55959;51.244;5.724;2022-12-24T17:28:26;13.00;69.30
68922;DHT22;55959;51.244;5.724;2022-12-24T17:30:52;12.90;69.30
68922;DHT22;55959;51.244;5.724;2022-12-24T17:33:18;12.90;69.50
68922;DHT22;55959;51.244;5.724;2022-12-24T17:35:43;12.80;69.60
68922;DHT22;55959;51.244;5.724;2022-12-24T17:38:13;12.80;70.00
68922;DHT22;55959;51.244;5.724;2022-12-24T17:40:39;12.80;70.40
68922;DHT22;55959;51.244;5.724;2022-12-24T17:43:04;12.70;70.80
68922;DHT22;55959;51.244;5.724;2022-12-24T17:45:30;12.70;71.10
68922;DHT22;55959;51.244;5.724;2022-12-24T17:47:57;12.70;71.30
68922;DHT22;55959;51.244;5.724;2022-12-24T17:50:23;12.70;71.50
68922;DHT22;55959;51.244;5.724;2022-12-24T17:52:48;12.70;71.60
68922;DHT22;55959;51.244;5.724;2022-12-24T17:55:14;12.70;71.70